sensor_id;sensor_type;location;lat;lon;timestamp;pressure;altitude;pressure_sealevel;temperature;humidity
83095;BME280;72967;43.674;6.976;2023-10-09T00:00:24;97569.59;;;20.36;41.59
83095;BME280;72967;43.674;6.976;2023-10-09T00:03:05;97568.34;;;20.30;41.87
83095;BME280;72967;43.674;6.976;2023-10-09T00:05:32;97577.56;;;20.34;42.13
83095;BME280;72967;43.674;6.976;2023-10-09T00:08:10;97575.13;;;20.29;42.42
83095;BME280;72967;43.674;6.976;2023-10-09T00:10:41;97571.63;;;20.47;41.50
83095;BME280;72967;43.674;6.976;2023-10-09T00:13:23;97572.88;;;20.53;41.25
83095;BME280;72967;43.674;6.976;2023-10-09T00:15:55;97568.09;;;20.53;40.66
83095;BME280;72967;43.674;6.976;2023-10-09T00:18:26;97558.94;;;20.56;40.44
83095;BME280;72967;43.674;6.976;2023-10-09T00:20:58;97570.09;;;20.56;40.63
83095;BME280;72967;43.674;6.976;2023-10-09T00:23:37;97557.31;;;20.55;40.24
83095;BME280;72967;43.674;6.976;2023-10-09T00:26:02;97562.50;;;20.53;40.78
83095;BME280;72967;43.674;6.976;2023-10-09T00:28:57;97568.50;;;20.52;40.66
83095;BME280;72967;43.674;6.976;2023-10-09T00:31:23;97570.06;;;20.49;40.69
83095;BME280;72967;43.674;6.976;2023-10-09T00:33:59;97556.91;;;20.53;40.12
83095;BME280;72967;43.674;6.976;2023-10-09T00:36:33;97561.31;;;20.51;40.36
83095;BME280;72967;43.674;6.976;2023-10-09T00:39:06;97556.47;;;20.44;40.59
83095;BME280;72967;43.674;6.976;2023-10-09T00:41:52;97556.47;;;20.48;40.96
83095;BME280;72967;43.674;6.976;2023-10-09T00:44:19;97555.28;;;20.49;40.92
83095;BME280;72967;43.674;6.976;2023-10-09T00:46:45;97556.88;;;20.46;41.04
83095;BME280;72967;43.674;6.976;2023-10-09T00:49:12;97557.31;;;20.52;40.85
83095;BME280;72967;43.674;6.976;2023-10-09T00:51:47;97551.72;;;20.52;40.78
83095;BME280;72967;43.674;6.976;2023-10-09T00:54:21;97548.94;;;20.52;40.56
83095;BME280;72967;43.674;6.976;2023-10-09T00:56:52;97529.72;;;20.47;40.02
83095;BME280;72967;43.674;6.976;2023-10-09T00:59:23;97532.94;;;20.52;39.64
83095;BME280;72967;43.674;6.976;2023-10-09T01:01:50;97535.78;;;20.59;39.61
83095;BME280;72967;43.674;6.976;2023-10-09T01:04:29;97537.00;;;20.65;39.82
83095;BME280;72967;43.674;6.976;2023-10-09T01:07:02;97530.63;;;20.65;39.97
83095;BME280;72967;43.674;6.976;2023-10-09T01:09:40;97528.16;;;20.53;39.54
83095;BME280;72967;43.674;6.976;2023-10-09T01:12:09;97530.56;;;20.54;39.63
83095;BME280;72967;43.674;6.976;2023-10-09T01:14:43;97528.97;;;20.46;40.15
83095;BME280;72967;43.674;6.976;2023-10-09T01:17:09;97532.94;;;20.45;40.17
83095;BME280;72967;43.674;6.976;2023-10-09T01:19:35;97508.47;;;20.28;40.02
83095;BME280;72967;43.674;6.976;2023-10-09T01:22:00;97528.88;;;20.32;40.54
83095;BME280;72967;43.674;6.976;2023-10-09T01:24:37;97536.47;;;20.35;40.91
83095;BME280;72967;43.674;6.976;2023-10-09T01:27:04;97533.66;;;20.31;40.77
83095;BME280;72967;43.674;6.976;2023-10-09T01:29:36;97531.19;;;20.26;40.68
83095;BME280;72967;43.674;6.976;2023-10-09T01:32:01;97526.03;;;20.25;40.06
83095;BME280;72967;43.674;6.976;2023-10-09T01:34:32;97529.16;;;20.16;40.13
83095;BME280;72967;43.674;6.976;2023-10-09T01:37:07;97541.13;;;20.17;40.36
83095;BME280;72967;43.674;6.976;2023-10-09T01:39:55;97533.94;;;20.16;40.42
83095;BME280;72967;43.674;6.976;2023-10-09T01:42:44;97526.72;;;20.11;40.46
83095;BME280;72967;43.674;6.976;2023-10-09T01:45:12;97537.94;;;20.18;40.41
83095;BME280;72967;43.674;6.976;2023-10-09T01:47:40;97518.41;;;20.22;40.08
83095;BME280;72967;43.674;6.976;2023-10-09T01:50:11;97535.16;;;20.22;40.51
83095;BME280;72967;43.674;6.976;2023-10-09T01:52:44;97522.41;;;20.21;40.38
83095;BME280;72967;43.674;6.976;2023-10-09T01:55:10;97525.66;;;20.30;40.19
83095;BME280;72967;43.674;6.976;2023-10-09T01:57:59;97517.22;;;20.19;40.20
83095;BME280;72967;43.674;6.976;2023-10-09T02:00:47;97524.00;;;20.18;40.45
83095;BME280;72967;43.674;6.976;2023-10-09T02:03:20;97506.78;;;20.09;40.98
83095;BME280;72967;43.674;6.976;2023-10-09T02:05:52;97528.78;;;20.21;41.00
83095;BME280;72967;43.674;6.976;2023-10-09T02:08:28;97528.44;;;20.30;40.63
83095;BME280;72967;43.674;6.976;2023-10-09T02:10:55;97523.25;;;20.28;40.34
83095;BME280;72967;43.674;6.976;2023-10-09T02:13:22;97532.09;;;20.34;40.04
83095;BME280;72967;43.674;6.976;2023-10-09T02:15:56;97514.81;;;20.21;39.73
83095;BME280;72967;43.674;6.976;2023-10-09T02:18:38;97523.56;;;20.13;39.75
83095;BME280;72967;43.674;6.976;2023-10-09T02:21:19;97509.56;;;20.06;39.95
83095;BME280;72967;43.674;6.976;2023-10-09T02:23:58;97506.31;;;20.00;40.17
83095;BME280;72967;43.674;6.976;2023-10-09T02:26:28;97518.34;;;20.08;39.84
83095;BME280;72967;43.674;6.976;2023-10-09T02:28:58;97514.75;;;20.04;40.43
83095;BME280;72967;43.674;6.976;2023-10-09T02:31:40;97518.78;;;20.10;40.43
83095;BME280;72967;43.674;6.976;2023-10-09T02:34:06;97521.94;;;20.05;40.85
83095;BME280;72967;43.674;6.976;2023-10-09T02:36:33;97478.63;;;19.70;40.73
83095;BME280;72967;43.674;6.976;2023-10-09T02:39:15;97515.03;;;19.88;41.19
83095;BME280;72967;43.674;6.976;2023-10-09T02:41:55;97524.97;;;19.82;41.57
83095;BME280;72967;43.674;6.976;2023-10-09T02:44:32;97516.91;;;19.70;42.21
83095;BME280;72967;43.674;6.976;2023-10-09T02:47:05;97524.44;;;19.66;42.38
83095;BME280;72967;43.674;6.976;2023-10-09T02:49:37;97515.19;;;19.51;42.03
83095;BME280;72967;43.674;6.976;2023-10-09T02:52:05;97521.19;;;19.53;42.53
83095;BME280;72967;43.674;6.976;2023-10-09T02:54:32;97529.09;;;19.47;42.32
83095;BME280;72967;43.674;6.976;2023-10-09T02:57:01;97529.13;;;19.55;42.06
83095;BME280;72967;43.674;6.976;2023-10-09T02:59:33;97533.97;;;19.58;41.67
83095;BME280;72967;43.674;6.976;2023-10-09T03:01:59;97528.38;;;19.58;41.27
83095;BME280;72967;43.674;6.976;2023-10-09T03:04:28;97533.19;;;19.64;41.35
83095;BME280;72967;43.674;6.976;2023-10-09T03:06:55;97535.66;;;19.73;41.22
83095;BME280;72967;43.674;6.976;2023-10-09T03:09:22;97530.94;;;19.80;41.16
83095;BME280;72967;43.674;6.976;2023-10-09T03:11:58;97528.22;;;19.91;40.33
83095;BME280;72967;43.674;6.976;2023-10-09T03:14:37;97524.66;;;19.94;40.01
83095;BME280;72967;43.674;6.976;2023-10-09T03:17:06;97523.44;;;19.95;39.97
83095;BME280;72967;43.674;6.976;2023-10-09T03:19:37;97523.88;;;19.97;39.71
83095;BME280;72967;43.674;6.976;2023-10-09T03:22:08;97514.59;;;19.79;40.28
83095;BME280;72967;43.674;6.976;2023-10-09T03:24:35;97526.59;;;19.86;40.09
83095;BME280;72967;43.674;6.976;2023-10-09T03:27:02;97531.72;;;19.81;40.52
83095;BME280;72967;43.674;6.976;2023-10-09T03:29:27;97532.47;;;19.71;41.27
83095;BME280;72967;43.674;6.976;2023-10-09T03:31:53;97524.81;;;19.61;41.37
83095;BME280;72967;43.674;6.976;2023-10-09T03:34:21;97534.78;;;19.62;41.01
83095;BME280;72967;43.674;6.976;2023-10-09T03:36:46;97524.38;;;19.55;40.69
83095;BME280;72967;43.674;6.976;2023-10-09T03:39:13;97522.31;;;19.48;41.22
83095;BME280;72967;43.674;6.976;2023-10-09T03:41:57;97523.84;;;19.42;41.91
83095;BME280;72967;43.674;6.976;2023-10-09T03:44:30;97523.00;;;19.38;42.50
83095;BME280;72967;43.674;6.976;2023-10-09T03:46:58;97532.16;;;19.35;43.24
83095;BME280;72967;43.674;6.976;2023-10-09T03:49:24;97526.53;;;19.32;43.84
83095;BME280;72967;43.674;6.976;2023-10-09T03:51:51;97532.84;;;19.25;44.79
83095;BME280;72967;43.674;6.976;2023-10-09T03:54:17;97529.53;;;19.13;45.19
83095;BME280;72967;43.674;6.976;2023-10-09T03:56:46;97530.75;;;19.12;44.09
83095;BME280;72967;43.674;6.976;2023-10-09T03:59:16;97533.94;;;19.17;45.33
83095;BME280;72967;43.674;6.976;2023-10-09T04:01:41;97530.41;;;19.20;41.89
83095;BME280;72967;43.674;6.976;2023-10-09T04:04:09;97532.03;;;19.25;41.68
83095;BME280;72967;43.674;6.976;2023-10-09T04:06:38;97531.31;;;19.31;41.88
83095;BME280;72967;43.674;6.976;2023-10-09T04:09:08;97534.50;;;19.33;42.02
83095;BME280;72967;43.674;6.976;2023-10-09T04:11:50;97526.19;;;19.37;41.71
83095;BME280;72967;43.674;6.976;2023-10-09T04:14:34;97519.72;;;19.26;42.18
83095;BME280;72967;43.674;6.976;2023-10-09T04:17:00;97531.63;;;19.23;42.34
83095;BME280;72967;43.674;6.976;2023-10-09T04:19:31;97529.63;;;19.20;42.00
83095;BME280;72967;43.674;6.976;2023-10-09T04:22:07;97514.66;;;18.98;42.35
83095;BME280;72967;43.674;6.976;2023-10-09T04:24:34;97533.06;;;19.06;42.40
83095;BME280;72967;43.674;6.976;2023-10-09T04:27:09;97524.66;;;19.02;42.54
83095;BME280;72967;43.674;6.976;2023-10-09T04:29:35;97528.25;;;19.03;42.71
83095;BME280;72967;43.674;6.976;2023-10-09T04:32:04;97509.03;;;18.91;42.85
83095;BME280;72967;43.674;6.976;2023-10-09T04:34:33;97535.47;;;19.07;42.53
83095;BME280;72967;43.674;6.976;2023-10-09T04:37:03;97532.28;;;19.09;42.73
83095;BME280;72967;43.674;6.976;2023-10-09T04:39:47;97533.38;;;18.97;42.82
83095;BME280;72967;43.674;6.976;2023-10-09T04:42:14;97520.13;;;18.87;43.09
83095;BME280;72967;43.674;6.976;2023-10-09T04:44:49;97528.84;;;18.82;43.40
83095;BME280;72967;43.674;6.976;2023-10-09T04:47:31;97530.44;;;18.83;43.01
83095;BME280;72967;43.674;6.976;2023-10-09T04:50:09;97532.84;;;18.85;43.30
83095;BME280;72967;43.674;6.976;2023-10-09T04:53:03;97515.97;;;18.71;43.53
83095;BME280;72967;43.674;6.976;2023-10-09T04:55:44;97531.25;;;18.84;43.59
83095;BME280;72967;43.674;6.976;2023-10-09T04:58:23;97535.31;;;18.93;44.25
83095;BME280;72967;43.674;6.976;2023-10-09T05:00:50;97539.34;;;18.96;44.09
83095;BME280;72967;43.674;6.976;2023-10-09T05:03:25;97531.69;;;18.89;44.51
83095;BME280;72967;43.674;6.976;2023-10-09T05:05:53;97537.69;;;18.91;44.17
83095;BME280;72967;43.674;6.976;2023-10-09T05:08:27;97543.31;;;18.95;43.40
83095;BME280;72967;43.674;6.976;2023-10-09T05:10:55;97506.88;;;18.77;42.69
83095;BME280;72967;43.674;6.976;2023-10-09T05:13:44;97540.91;;;18.97;42.99
83095;BME280;72967;43.674;6.976;2023-10-09T05:16:17;97546.22;;;19.05;42.16
83095;BME280;72967;43.674;6.976;2023-10-09T05:18:48;97551.81;;;19.09;42.13
83095;BME280;72967;43.674;6.976;2023-10-09T05:21:32;97551.88;;;19.16;41.85
83095;BME280;72967;43.674;6.976;2023-10-09T05:23:59;97542.28;;;19.10;42.25
83095;BME280;72967;43.674;6.976;2023-10-09T05:26:41;97551.03;;;19.12;42.54
83095;BME280;72967;43.674;6.976;2023-10-09T05:29:25;97537.06;;;19.08;42.54
83095;BME280;72967;43.674;6.976;2023-10-09T05:32:04;97555.84;;;19.12;42.96
83095;BME280;72967;43.674;6.976;2023-10-09T05:34:39;97545.44;;;19.08;42.67
83095;BME280;72967;43.674;6.976;2023-10-09T05:37:27;97551.78;;;19.05;42.65
83095;BME280;72967;43.674;6.976;2023-10-09T05:40:03;97548.19;;;19.05;42.98
83095;BME280;72967;43.674;6.976;2023-10-09T05:42:41;97535.28;;;18.90;42.88
83095;BME280;72967;43.674;6.976;2023-10-09T05:47:46;97552.41;;;18.92;43.97
83095;BME280;72967;43.674;6.976;2023-10-09T05:50:30;97558.03;;;18.95;44.01
83095;BME280;72967;43.674;6.976;2023-10-09T05:52:58;97535.22;;;18.86;44.51
83095;BME280;72967;43.674;6.976;2023-10-09T05:55:28;97557.00;;;19.10;44.49
83095;BME280;72967;43.674;6.976;2023-10-09T05:58:13;97557.38;;;19.09;45.01
83095;BME280;72967;43.674;6.976;2023-10-09T06:00:44;97567.34;;;19.10;45.75
83095;BME280;72967;43.674;6.976;2023-10-09T06:03:28;97574.94;;;19.13;46.33
83095;BME280;72967;43.674;6.976;2023-10-09T06:06:15;97564.59;;;19.14;45.50
83095;BME280;72967;43.674;6.976;2023-10-09T06:09:03;97569.91;;;19.26;44.93
83095;BME280;72967;43.674;6.976;2023-10-09T06:14:07;97574.06;;;19.42;44.08
83095;BME280;72967;43.674;6.976;2023-10-09T06:16:36;97557.63;;;19.34;44.28
83095;BME280;72967;43.674;6.976;2023-10-09T06:19:20;97574.56;;;19.51;44.96
83095;BME280;72967;43.674;6.976;2023-10-09T06:21:56;97570.59;;;19.56;45.34
83095;BME280;72967;43.674;6.976;2023-10-09T06:24:41;97580.25;;;19.69;43.48
83095;BME280;72967;43.674;6.976;2023-10-09T06:27:10;97589.94;;;19.79;42.26
83095;BME280;72967;43.674;6.976;2023-10-09T06:29:36;97521.06;;;19.42;42.45
83095;BME280;72967;43.674;6.976;2023-10-09T06:32:07;97580.03;;;19.88;42.36
83095;BME280;72967;43.674;6.976;2023-10-09T06:34:49;97584.44;;;19.89;42.51
83095;BME280;72967;43.674;6.976;2023-10-09T06:37:21;97579.63;;;19.90;42.89
83095;BME280;72967;43.674;6.976;2023-10-09T06:42:16;97591.75;;;20.08;42.65
83095;BME280;72967;43.674;6.976;2023-10-09T06:45:12;97589.78;;;20.16;42.95
83095;BME280;72967;43.674;6.976;2023-10-09T06:47:49;97587.84;;;20.20;44.06
83095;BME280;72967;43.674;6.976;2023-10-09T06:50:21;97595.94;;;20.35;45.09
83095;BME280;72967;43.674;6.976;2023-10-09T06:52:54;97591.19;;;20.47;44.89
83095;BME280;72967;43.674;6.976;2023-10-09T06:55:27;97588.00;;;20.48;45.43
83095;BME280;72967;43.674;6.976;2023-10-09T06:58:01;97574.84;;;20.45;45.73
83095;BME280;72967;43.674;6.976;2023-10-09T07:00:39;97598.84;;;20.60;46.68
83095;BME280;72967;43.674;6.976;2023-10-09T07:03:33;97595.25;;;20.60;46.43
83095;BME280;72967;43.674;6.976;2023-10-09T07:08:35;97599.69;;;20.68;47.09
83095;BME280;72967;43.674;6.976;2023-10-09T07:11:06;97606.06;;;20.68;47.52
83095;BME280;72967;43.674;6.976;2023-10-09T07:16:33;97606.88;;;20.65;49.27
83095;BME280;72967;43.674;6.976;2023-10-09T07:19:05;97607.28;;;20.71;49.75
83095;BME280;72967;43.674;6.976;2023-10-09T07:21:50;97598.06;;;20.63;48.68
83095;BME280;72967;43.674;6.976;2023-10-09T07:24:20;97613.31;;;20.76;48.05
83095;BME280;72967;43.674;6.976;2023-10-09T07:26:50;97616.13;;;20.80;48.28
83095;BME280;72967;43.674;6.976;2023-10-09T07:29:19;97614.94;;;20.85;48.00
83095;BME280;72967;43.674;6.976;2023-10-09T07:31:49;97601.34;;;20.83;48.01
83095;BME280;72967;43.674;6.976;2023-10-09T07:34:23;97615.78;;;20.96;49.18
83095;BME280;72967;43.674;6.976;2023-10-09T07:37:14;97599.84;;;21.03;50.68
83095;BME280;72967;43.674;6.976;2023-10-09T07:39:44;97609.47;;;21.13;50.55
83095;BME280;72967;43.674;6.976;2023-10-09T07:42:15;97619.88;;;21.19;55.41
83095;BME280;72967;43.674;6.976;2023-10-09T07:44:44;97612.28;;;21.20;58.24
83095;BME280;72967;43.674;6.976;2023-10-09T07:47:18;97607.91;;;21.26;57.93
83095;BME280;72967;43.674;6.976;2023-10-09T07:50:11;97623.13;;;21.29;56.29
83095;BME280;72967;43.674;6.976;2023-10-09T07:52:36;97619.94;;;21.34;58.24
83095;BME280;72967;43.674;6.976;2023-10-09T07:55:09;97623.13;;;21.39;57.16
83095;BME280;72967;43.674;6.976;2023-10-09T07:57:51;97623.53;;;21.41;55.33
83095;BME280;72967;43.674;6.976;2023-10-09T08:00:17;97615.94;;;21.45;53.84
83095;BME280;72967;43.674;6.976;2023-10-09T08:03:01;97615.97;;;21.49;53.87
83095;BME280;72967;43.674;6.976;2023-10-09T08:05:47;97620.75;;;21.62;53.01
83095;BME280;72967;43.674;6.976;2023-10-09T08:08:12;97621.97;;;21.65;52.76
83095;BME280;72967;43.674;6.976;2023-10-09T08:11:03;97593.97;;;21.51;52.55
83095;BME280;72967;43.674;6.976;2023-10-09T08:13:55;97609.97;;;21.72;52.51
83095;BME280;72967;43.674;6.976;2023-10-09T08:16:27;97623.97;;;21.82;51.27
83095;BME280;72967;43.674;6.976;2023-10-09T08:19:04;97623.19;;;21.92;49.05
83095;BME280;72967;43.674;6.976;2023-10-09T08:21:48;97618.41;;;22.00;50.53
83095;BME280;72967;43.674;6.976;2023-10-09T08:24:32;97610.78;;;22.08;52.29
83095;BME280;72967;43.674;6.976;2023-10-09T08:27:06;97625.19;;;22.20;52.38
83095;BME280;72967;43.674;6.976;2023-10-09T08:29:50;97625.19;;;22.27;53.83
83095;BME280;72967;43.674;6.976;2023-10-09T08:32:36;97627.16;;;22.34;53.83
83095;BME280;72967;43.674;6.976;2023-10-09T08:35:06;97628.38;;;22.36;52.70
83095;BME280;72967;43.674;6.976;2023-10-09T08:37:50;97625.97;;;22.42;50.67
83095;BME280;72967;43.674;6.976;2023-10-09T08:40:16;97631.16;;;22.43;48.49
83095;BME280;72967;43.674;6.976;2023-10-09T08:42:51;97628.34;;;22.43;49.22
83095;BME280;72967;43.674;6.976;2023-10-09T08:45:21;97619.56;;;22.45;51.35
83095;BME280;72967;43.674;6.976;2023-10-09T08:47:53;97621.13;;;22.50;51.79
83095;BME280;72967;43.674;6.976;2023-10-09T08:50:22;97622.75;;;22.51;52.08
83095;BME280;72967;43.674;6.976;2023-10-09T08:52:48;97628.34;;;22.58;52.42
83095;BME280;72967;43.674;6.976;2023-10-09T08:55:15;97621.53;;;22.59;52.83
83095;BME280;72967;43.674;6.976;2023-10-09T08:57:44;97632.34;;;22.64;52.87
83095;BME280;72967;43.674;6.976;2023-10-09T09:00:20;97629.91;;;22.66;51.23
83095;BME280;72967;43.674;6.976;2023-10-09T09:02:50;97623.91;;;22.60;50.38
83095;BME280;72967;43.674;6.976;2023-10-09T09:05:22;97624.69;;;22.64;49.76
83095;BME280;72967;43.674;6.976;2023-10-09T09:07:49;97628.72;;;22.67;48.81
83095;BME280;72967;43.674;6.976;2023-10-09T09:10:15;97627.50;;;22.68;47.69
83095;BME280;72967;43.674;6.976;2023-10-09T09:12:43;97619.09;;;22.75;48.51
83095;BME280;72967;43.674;6.976;2023-10-09T09:15:16;97617.47;;;22.81;48.21
83095;BME280;72967;43.674;6.976;2023-10-09T09:17:45;97627.47;;;22.85;47.75
83095;BME280;72967;43.674;6.976;2023-10-09T09:20:24;97616.66;;;22.80;48.99
83095;BME280;72967;43.674;6.976;2023-10-09T09:22:56;97612.22;;;22.94;49.08
83095;BME280;72967;43.674;6.976;2023-10-09T09:25:22;97619.41;;;22.98;48.76
83095;BME280;72967;43.674;6.976;2023-10-09T09:27:50;97612.97;;;23.01;48.39
83095;BME280;72967;43.674;6.976;2023-10-09T09:30:23;97605.38;;;23.05;47.70
83095;BME280;72967;43.674;6.976;2023-10-09T09:32:50;97560.59;;;22.80;46.98
83095;BME280;72967;43.674;6.976;2023-10-09T09:35:35;97606.53;;;23.15;46.16
83095;BME280;72967;43.674;6.976;2023-10-09T09:38:01;97606.13;;;23.13;46.78
83095;BME280;72967;43.674;6.976;2023-10-09T09:40:31;97610.09;;;23.19;46.34
83095;BME280;72967;43.674;6.976;2023-10-09T09:42:59;97611.25;;;23.28;47.01
83095;BME280;72967;43.674;6.976;2023-10-09T09:45:35;97606.81;;;23.35;47.59
83095;BME280;72967;43.674;6.976;2023-10-09T09:48:05;97604.44;;;23.29;48.17
83095;BME280;72967;43.674;6.976;2023-10-09T09:50:35;97607.22;;;23.33;47.83
83095;BME280;72967;43.674;6.976;2023-10-09T09:53:09;97595.97;;;23.37;48.02
83095;BME280;72967;43.674;6.976;2023-10-09T09:55:44;97605.16;;;23.41;48.76
83095;BME280;72967;43.674;6.976;2023-10-09T09:58:17;97597.94;;;23.47;48.89
83095;BME280;72967;43.674;6.976;2023-10-09T10:00:47;97546.75;;;23.21;48.79
83095;BME280;72967;43.674;6.976;2023-10-09T10:03:28;97600.69;;;23.54;48.84
83095;BME280;72967;43.674;6.976;2023-10-09T10:05:59;97594.28;;;23.57;48.55
83095;BME280;72967;43.674;6.976;2023-10-09T10:08:29;97598.22;;;23.66;49.31
83095;BME280;72967;43.674;6.976;2023-10-09T10:10:58;97588.13;;;23.73;48.71
83095;BME280;72967;43.674;6.976;2023-10-09T10:13:56;97599.66;;;23.85;49.31
83095;BME280;72967;43.674;6.976;2023-10-09T10:16:24;97596.44;;;23.87;49.11
83095;BME280;72967;43.674;6.976;2023-10-09T10:19:01;97588.38;;;23.89;49.19
83095;BME280;72967;43.674;6.976;2023-10-09T10:21:47;97575.56;;;23.88;49.31
83095;BME280;72967;43.674;6.976;2023-10-09T10:24:41;97590.69;;;24.01;48.95
83095;BME280;72967;43.674;6.976;2023-10-09T10:27:25;97571.06;;;23.94;49.21
83095;BME280;72967;43.674;6.976;2023-10-09T10:32:57;97581.06;;;24.02;49.24
83095;BME280;72967;43.674;6.976;2023-10-09T10:35:24;97577.44;;;24.01;49.39
83095;BME280;72967;43.674;6.976;2023-10-09T10:40:47;97579.31;;;24.15;50.32
83095;BME280;72967;43.674;6.976;2023-10-09T10:43:22;97570.47;;;24.17;49.43
83095;BME280;72967;43.674;6.976;2023-10-09T10:46:05;97573.63;;;24.26;49.71
83095;BME280;72967;43.674;6.976;2023-10-09T10:48:39;97567.53;;;24.34;49.12
83095;BME280;72967;43.674;6.976;2023-10-09T10:51:05;97553.50;;;24.31;49.23
83095;BME280;72967;43.674;6.976;2023-10-09T10:53:31;97561.91;;;24.31;48.96
83095;BME280;72967;43.674;6.976;2023-10-09T10:56:13;97563.53;;;24.32;48.97
83095;BME280;72967;43.674;6.976;2023-10-09T10:58:39;97555.25;;;24.18;50.04
83095;BME280;72967;43.674;6.976;2023-10-09T11:01:20;97547.16;;;24.23;51.56
83095;BME280;72967;43.674;6.976;2023-10-09T11:03:51;97550.69;;;24.31;50.60
83095;BME280;72967;43.674;6.976;2023-10-09T11:06:29;97541.44;;;24.30;50.15
83095;BME280;72967;43.674;6.976;2023-10-09T11:09:03;97537.69;;;24.44;51.61
83095;BME280;72967;43.674;6.976;2023-10-09T11:11:46;97540.84;;;24.49;51.35
83095;BME280;72967;43.674;6.976;2023-10-09T11:14:12;97545.28;;;24.47;50.79
83095;BME280;72967;43.674;6.976;2023-10-09T11:16:42;97530.31;;;24.57;52.55
83095;BME280;72967;43.674;6.976;2023-10-09T11:19:11;97530.63;;;24.63;52.15
83095;BME280;72967;43.674;6.976;2023-10-09T11:21:53;97523.75;;;24.67;52.38
83095;BME280;72967;43.674;6.976;2023-10-09T11:24:27;97529.28;;;24.74;52.51
83095;BME280;72967;43.674;6.976;2023-10-09T11:26:58;97524.81;;;24.77;52.32
83095;BME280;72967;43.674;6.976;2023-10-09T11:29:31;97505.31;;;24.66;53.28
83095;BME280;72967;43.674;6.976;2023-10-09T11:32:13;97512.03;;;24.72;54.27
83095;BME280;72967;43.674;6.976;2023-10-09T11:34:48;97515.91;;;24.82;54.49
83095;BME280;72967;43.674;6.976;2023-10-09T11:37:19;97508.66;;;24.84;53.97
83095;BME280;72967;43.674;6.976;2023-10-09T11:39:54;97497.00;;;24.86;54.62
83095;BME280;72967;43.674;6.976;2023-10-09T11:42:22;97480.25;;;24.75;53.49
83095;BME280;72967;43.674;6.976;2023-10-09T11:45:05;97483.75;;;24.83;53.71
83095;BME280;72967;43.674;6.976;2023-10-09T11:47:53;97485.66;;;24.93;54.13
83095;BME280;72967;43.674;6.976;2023-10-09T11:50:44;97482.75;;;25.00;54.02
83095;BME280;72967;43.674;6.976;2023-10-09T11:53:17;97472.63;;;25.06;54.45
83095;BME280;72967;43.674;6.976;2023-10-09T11:55:58;97468.63;;;25.04;55.73
83095;BME280;72967;43.674;6.976;2023-10-09T11:58:24;97466.81;;;24.90;55.45
83095;BME280;72967;43.674;6.976;2023-10-09T12:00:53;97471.50;;;25.00;55.34
83095;BME280;72967;43.674;6.976;2023-10-09T12:03:29;97463.06;;;25.00;55.18
83095;BME280;72967;43.674;6.976;2023-10-09T12:05:59;97451.59;;;24.84;55.47
83095;BME280;72967;43.674;6.976;2023-10-09T12:08:37;97457.56;;;24.89;54.92
83095;BME280;72967;43.674;6.976;2023-10-09T12:11:05;97453.16;;;24.88;55.25
83095;BME280;72967;43.674;6.976;2023-10-09T12:13:34;97450.63;;;24.97;54.97
83095;BME280;72967;43.674;6.976;2023-10-09T12:16:00;97447.31;;;25.03;55.44
83095;BME280;72967;43.674;6.976;2023-10-09T12:18:25;97442.06;;;25.05;55.49
83095;BME280;72967;43.674;6.976;2023-10-09T12:20:51;97444.56;;;24.99;56.12
83095;BME280;72967;43.674;6.976;2023-10-09T12:23:19;97439.75;;;25.00;55.63
83095;BME280;72967;43.674;6.976;2023-10-09T12:25:44;97441.44;;;24.93;55.35
83095;BME280;72967;43.674;6.976;2023-10-09T12:28:10;97436.59;;;24.94;55.01
83095;BME280;72967;43.674;6.976;2023-10-09T12:30:40;97431.38;;;24.96;56.01
83095;BME280;72967;43.674;6.976;2023-10-09T12:33:06;97429.66;;;25.02;56.39
83095;BME280;72967;43.674;6.976;2023-10-09T12:35:39;97425.25;;;25.01;56.13
83095;BME280;72967;43.674;6.976;2023-10-09T12:38:06;97420.53;;;24.94;55.43
83095;BME280;72967;43.674;6.976;2023-10-09T12:40:35;97417.34;;;24.92;55.36
83095;BME280;72967;43.674;6.976;2023-10-09T12:43:01;97413.38;;;24.90;54.12
83095;BME280;72967;43.674;6.976;2023-10-09T12:45:26;97419.81;;;24.87;55.39
83095;BME280;72967;43.674;6.976;2023-10-09T12:47:55;97420.09;;;24.96;55.37
83095;BME280;72967;43.674;6.976;2023-10-09T12:50:28;97409.59;;;25.00;55.67
83095;BME280;72967;43.674;6.976;2023-10-09T12:52:57;97412.88;;;24.95;55.82
83095;BME280;72967;43.674;6.976;2023-10-09T12:55:38;97409.34;;;24.91;55.53
83095;BME280;72967;43.674;6.976;2023-10-09T12:58:06;97408.16;;;24.88;55.09
83095;BME280;72967;43.674;6.976;2023-10-09T13:00:36;97355.00;;;24.67;55.12
83095;BME280;72967;43.674;6.976;2023-10-09T13:03:06;97397.72;;;24.85;54.63
83095;BME280;72967;43.674;6.976;2023-10-09T13:05:52;97396.06;;;24.91;54.42
83095;BME280;72967;43.674;6.976;2023-10-09T13:08:22;97400.03;;;24.94;54.29
83095;BME280;72967;43.674;6.976;2023-10-09T13:10:52;97400.91;;;24.91;54.80
83095;BME280;72967;43.674;6.976;2023-10-09T13:13:27;97394.91;;;24.85;54.86
83095;BME280;72967;43.674;6.976;2023-10-09T13:16:15;97387.75;;;24.81;54.35
83095;BME280;72967;43.674;6.976;2023-10-09T13:18:57;97394.97;;;24.82;54.11
83095;BME280;72967;43.674;6.976;2023-10-09T13:21:28;97382.16;;;24.77;54.23
83095;BME280;72967;43.674;6.976;2023-10-09T13:24:03;97380.84;;;24.85;54.33
83095;BME280;72967;43.674;6.976;2023-10-09T13:26:29;97378.47;;;24.84;53.47
83095;BME280;72967;43.674;6.976;2023-10-09T13:28:58;97382.88;;;24.85;54.03
83095;BME280;72967;43.674;6.976;2023-10-09T13:31:27;97363.97;;;24.85;53.93
83095;BME280;72967;43.674;6.976;2023-10-09T13:33:54;97376.69;;;24.97;54.13
83095;BME280;72967;43.674;6.976;2023-10-09T13:36:21;97370.41;;;24.86;53.62
83095;BME280;72967;43.674;6.976;2023-10-09T13:38:53;97372.31;;;24.92;54.17
83095;BME280;72967;43.674;6.976;2023-10-09T13:41:19;97369.09;;;24.94;54.30
83095;BME280;72967;43.674;6.976;2023-10-09T13:43:45;97365.06;;;24.95;54.93
83095;BME280;72967;43.674;6.976;2023-10-09T13:46:11;97376.00;;;24.89;54.96
83095;BME280;72967;43.674;6.976;2023-10-09T13:48:39;97366.75;;;24.89;54.80
83095;BME280;72967;43.674;6.976;2023-10-09T13:51:07;97373.63;;;24.84;55.14